Terminal Aerodrome Forecast
Issued by NWS

Home | Current Version | Previous Version | Graphics & Text | Print | Product List | Glossary On
Versions: 1 2 3 4 5 6 7 8 9 10 11 12 13 14 15 16
000
FTUS43 KABR 281200 AAA
TAFMBG
TAF AMD
KMBG 281245Z 2813/2912 01006KT P6SM SKC
      TEMPO 2813/2814 1SM BR VV001
     FM290200 12006KT P6SM SKC=

USA.gov is the U.S. government's official web portal to all federal, state and local government web resources and services.